Time;durP1;ratioP1;P1;durP2;ratioP2;P2;SDS_P1;SDS_P2;PMS_P1;PMS_P2;Temp;Humidity;BMP_temperature;BMP_pressure;BME280_temperature;BME280_humidity;BME280_pressure;Samples;Min_cycle;Max_cycle;Signal;HPM_P1;HPM_P2
2022/12/11 00:03:28;;;;;;;6.38;4.03;;;16.30;56.90;;;;;;10442474;28;20028;-53
2022/12/11 00:08:29;;;;;;;5.85;3.67;;;16.30;56.30;;;;;;10409721;28;20112;-53
2022/12/11 00:13:29;;;;;;;5.75;3.85;;;16.30;56.40;;;;;;10408940;28;20108;-54
2022/12/11 00:18:30;;;;;;;5.32;3.30;;;16.10;57.70;;;;;;10400127;28;20041;-54
2022/12/11 00:23:32;;;;;;;5.90;4.45;;;16.00;57.90;;;;;;10408852;28;20022;-54
2022/12/11 00:28:33;;;;;;;5.40;3.45;;;16.20;57.00;;;;;;10445998;28;20369;-55
2022/12/11 00:33:34;;;;;;;6.75;4.13;;;16.20;56.70;;;;;;10425045;28;20493;-53
2022/12/11 00:38:35;;;;;;;7.15;4.22;;;16.20;56.30;;;;;;10436252;28;20087;-54
2022/12/11 00:43:36;;;;;;;6.93;4.53;;;16.20;56.40;;;;;;10443519;28;20068;-55
2022/12/11 00:48:37;;;;;;;6.22;3.63;;;16.00;57.70;;;;;;10423471;28;20106;-52
2022/12/11 00:53:38;;;;;;;7.60;4.07;;;16.10;57.70;;;;;;10423093;28;20159;-52
2022/12/11 00:58:39;;;;;;;6.93;3.97;;;16.20;57.70;;;;;;10445577;28;20016;-53
2022/12/11 01:03:39;;;;;;;7.13;3.58;;;16.20;57.60;;;;;;10424611;28;20033;-54
2022/12/11 01:08:40;;;;;;;5.70;4.10;;;16.20;57.40;;;;;;10452342;28;20047;-53
2022/12/11 01:13:42;;;;;;;8.40;4.30;;;16.20;57.00;;;;;;10422906;28;20226;-54
2022/12/11 01:18:43;;;;;;;8.13;3.53;;;16.30;57.10;;;;;;10452321;28;20548;-54
2022/12/11 01:23:43;;;;;;;6.15;3.97;;;16.20;56.00;;;;;;10452043;28;20028;-55
2022/12/11 01:28:48;;;;;;;7.63;4.43;;;16.10;57.00;;;;;;10445901;28;20565;-55
2022/12/11 01:33:48;;;;;;;7.85;4.30;;;16.00;58.00;;;;;;10438027;28;20032;-54
2022/12/11 01:38:49;;;;;;;4.80;3.42;;;16.10;57.50;;;;;;10410458;28;20064;-53
2022/12/11 01:44:04;;;;;;;8.27;4.38;;;16.20;56.80;;;;;;10408918;28;20045;-55
2022/12/11 01:49:12;;;;;;;5.47;3.45;;;16.20;56.40;;;;;;10441151;28;20025;-54
2022/12/11 01:54:16;;;;;;;6.97;4.20;;;16.30;56.10;;;;;;10449268;28;20078;-54
2022/12/11 01:59:21;;;;;;;5.72;3.63;;;16.10;57.00;;;;;;10449555;28;20044;-54
2022/12/11 02:04:23;;;;;;;6.10;3.63;;;16.00;57.60;;;;;;10448483;28;20083;-53
2022/12/11 02:09:34;;;;;;;7.22;3.60;;;16.20;56.80;;;;;;10449132;28;20353;-54
2022/12/11 02:14:58;;;;;;;5.10;4.05;;;16.30;56.10;;;;;;10443647;28;20045;-54
2022/12/11 02:20:20;;;;;;;7.25;4.00;;;16.30;55.80;;;;;;10448010;28;20009;-53
2022/12/11 02:26:25;;;;;;;7.22;3.80;;;16.20;55.80;;;;;;10434867;28;20503;-55
2022/12/11 02:31:46;;;;;;;8.50;4.30;;;16.10;57.00;;;;;;10422347;28;20044;-53
2022/12/11 02:36:53;;;;;;;4.90;3.33;;;16.10;57.40;;;;;;10411338;28;20104;-52
2022/12/11 02:41:55;;;;;;;6.97;4.10;;;16.10;57.30;;;;;;10434906;28;20021;-54
2022/12/11 02:46:57;;;;;;;5.82;3.75;;;16.10;57.40;;;;;;10446746;28;20051;-55
2022/12/11 02:52:02;;;;;;;7.40;4.40;;;16.10;57.30;;;;;;10411341;28;20033;-55
2022/12/11 02:57:15;;;;;;;5.60;4.00;;;16.20;56.60;;;;;;10405857;28;20036;-52
2022/12/11 03:02:17;;;;;;;6.68;4.22;;;16.30;56.70;;;;;;10429132;28;20380;-55
2022/12/11 03:07:23;;;;;;;7.80;5.38;;;16.30;55.70;;;;;;10446368;28;20036;-55
2022/12/11 03:12:31;;;;;;;6.45;4.15;;;16.20;55.90;;;;;;10409016;28;20667;-53
2022/12/11 03:17:44;;;;;;;7.22;4.00;;;16.10;57.00;;;;;;10426289;28;20053;-53
2022/12/11 03:22:51;;;;;;;5.97;3.72;;;16.00;57.30;;;;;;10415516;28;20024;-53
2022/12/11 03:28:49;;;;;;;6.43;3.80;;;16.10;57.30;;;;;;10447577;28;20009;-54
2022/12/11 03:33:55;;;;;;;5.97;4.07;;;16.20;57.20;;;;;;10430133;28;20072;-54
2022/12/11 03:39:05;;;;;;;6.32;3.97;;;16.10;56.70;;;;;;10437756;28;20017;-54
2022/12/11 03:44:06;;;;;;;5.82;3.50;;;16.30;56.10;;;;;;10418704;28;20049;-53
2022/12/11 03:49:15;;;;;;;7.20;4.18;;;16.30;55.60;;;;;;10461851;28;20112;-54
2022/12/11 03:54:16;;;;;;;6.40;4.53;;;16.20;55.70;;;;;;10446277;28;20528;-53
2022/12/11 03:59:17;;;;;;;5.65;3.88;;;16.10;56.70;;;;;;10426532;28;20453;-54
2022/12/11 04:04:18;;;;;;;6.20;3.90;;;16.10;57.10;;;;;;10408842;28;20089;-54
2022/12/11 04:09:19;;;;;;;6.20;3.80;;;16.20;56.90;;;;;;10422397;28;20108;-53
2022/12/11 04:25:07;;;;;;;11.65;4.82;;;16.30;56.20;;;;;;10441688;28;20049;-55
2022/12/11 04:30:15;;;;;;;7.80;4.00;;;16.30;55.90;;;;;;10428758;28;20029;-54
2022/12/11 04:35:16;;;;;;;8.10;3.92;;;16.30;55.40;;;;;;10424490;28;20152;-55
2022/12/11 04:40:19;;;;;;;8.02;5.85;;;16.30;55.50;;;;;;10444974;28;20029;-53
2022/12/11 04:45:19;;;;;;;10.68;4.55;;;16.10;56.70;;;;;;10423457;28;20056;-52
2022/12/11 04:50:20;;;;;;;5.97;3.75;;;16.10;57.20;;;;;;10440564;28;20032;-53
2022/12/11 04:55:21;;;;;;;7.50;4.10;;;16.20;56.40;;;;;;10438998;28;20091;-54
2022/12/11 05:00:22;;;;;;;6.50;3.72;;;16.30;55.70;;;;;;10452905;28;20120;-54
2022/12/11 05:05:22;;;;;;;7.55;4.20;;;16.30;55.30;;;;;;10438448;28;20021;-53
2022/12/11 05:10:23;;;;;;;6.95;3.65;;;16.30;55.20;;;;;;10428345;28;20109;-55
2022/12/11 05:15:24;;;;;;;7.75;3.55;;;16.20;56.30;;;;;;10438175;28;20061;-55
2022/12/11 05:20:24;;;;;;;5.63;3.78;;;16.10;56.70;;;;;;10447920;28;20044;-56
2022/12/11 05:25:25;;;;;;;5.40;3.85;;;16.20;56.70;;;;;;10440734;28;20017;-54
2022/12/11 05:30:26;;;;;;;6.35;4.13;;;16.10;56.70;;;;;;10448360;28;20021;-55
2022/12/11 05:35:26;;;;;;;8.35;4.18;;;16.20;56.80;;;;;;10428505;28;20116;-52
2022/12/11 05:40:27;;;;;;;7.15;4.25;;;16.20;56.30;;;;;;10442798;28;20811;-54
2022/12/11 05:45:28;;;;;;;7.13;3.85;;;16.20;55.90;;;;;;10436364;28;20083;-56
2022/12/11 05:50:28;;;;;;;6.07;4.07;;;16.30;55.40;;;;;;10422981;28;20108;-54
2022/12/11 05:55:29;;;;;;;6.00;4.07;;;16.30;55.20;;;;;;10429050;28;20108;-52
2022/12/11 06:00:29;;;;;;;5.43;3.90;;;16.10;56.20;;;;;;10429805;28;20071;-53
2022/12/11 06:05:30;;;;;;;5.43;3.28;;;16.10;56.70;;;;;;10435290;28;20108;-54
2022/12/11 06:10:31;;;;;;;5.88;3.78;;;16.10;56.70;;;;;;10447677;28;20539;-55
2022/12/11 06:15:32;;;;;;;10.82;4.55;;;16.20;56.80;;;;;;10438783;28;20033;-54
2022/12/11 06:20:33;;;;;;;8.18;4.40;;;16.20;57.30;;;;;;10443109;28;20025;-54
2022/12/11 06:25:36;;;;;;;15.10;4.80;;;16.30;57.60;;;;;;10449174;28;20068;-55
2022/12/11 06:30:37;;;;;;;14.30;4.80;;;16.20;58.20;;;;;;10440922;28;20025;-56
2022/12/11 06:35:38;;;;;;;12.32;4.47;;;16.20;58.80;;;;;;10406392;28;20101;-56
2022/12/11 06:40:39;;;;;;;15.32;4.90;;;16.40;58.30;;;;;;10413880;28;20698;-55
2022/12/11 06:45:40;;;;;;;13.63;4.55;;;16.40;59.70;;;;;;10447748;28;20060;-54
2022/12/11 06:50:40;;;;;;;7.68;4.10;;;16.40;60.50;;;;;;10436554;28;20060;-52
2022/12/11 06:55:42;;;;;;;11.70;4.30;;;16.30;59.90;;;;;;10436626;28;20069;-51
2022/12/11 07:00:42;;;;;;;9.63;4.50;;;16.20;60.20;;;;;;10423324;28;20826;-54
2022/12/11 07:05:44;;;;;;;11.10;4.88;;;16.10;60.60;;;;;;10428446;28;20095;-53
2022/12/11 07:10:45;;;;;;;12.43;5.45;;;15.90;61.20;;;;;;10426191;28;20044;-59
2022/12/11 07:15:45;;;;;;;13.32;5.63;;;15.80;60.90;;;;;;10426127;28;20104;-54
2022/12/11 07:20:46;;;;;;;18.17;5.00;;;15.90;61.00;;;;;;10437527;28;20618;-52
2022/12/11 07:25:47;;;;;;;11.90;5.05;;;15.90;60.90;;;;;;10428278;28;20083;-53
2022/12/11 07:30:48;;;;;;;16.02;5.65;;;15.90;60.90;;;;;;10443716;28;20100;-53
2022/12/11 07:35:48;;;;;;;25.75;6.68;;;15.90;60.90;;;;;;10445880;28;20096;-54
2022/12/11 07:40:49;;;;;;;16.08;5.38;;;15.80;60.90;;;;;;10402469;28;20078;-54
2022/12/11 07:45:50;;;;;;;22.67;5.65;;;15.80;60.80;;;;;;10428457;28;20065;-53
2022/12/11 07:50:50;;;;;;;11.02;4.97;;;16.10;60.40;;;;;;10445524;28;20043;-54
2022/12/11 07:55:51;;;;;;;11.90;4.95;;;16.10;59.90;;;;;;10417907;28;20092;-51
2022/12/11 08:00:52;;;;;;;14.18;5.43;;;15.90;60.10;;;;;;10442050;28;20097;-53
2022/12/11 08:05:53;;;;;;;12.60;4.22;;;16.00;60.10;;;;;;10405091;28;20018;-54
2022/12/11 08:10:53;;;;;;;18.55;5.50;;;16.10;60.20;;;;;;10413884;28;20112;-54
2022/12/11 08:15:54;;;;;;;14.98;4.95;;;16.10;60.10;;;;;;10422871;28;20088;-52
2022/12/11 08:20:54;;;;;;;17.17;5.18;;;16.00;60.10;;;;;;10415861;28;20096;-53
2022/12/11 08:25:55;;;;;;;13.60;4.13;;;15.90;59.80;;;;;;10452630;28;20108;-54
2022/12/11 08:30:56;;;;;;;11.43;4.38;;;16.00;59.60;;;;;;10459185;28;20127;-53
2022/12/11 08:35:57;;;;;;;15.43;5.00;;;16.00;59.40;;;;;;10453205;28;20051;-54
2022/12/11 08:40:58;;;;;;;10.15;3.97;;;16.00;59.40;;;;;;10450080;28;20352;-53
2022/12/11 08:45:59;;;;;;;13.85;4.22;;;16.10;59.30;;;;;;10433347;28;20080;-55
2022/12/11 08:51:01;;;;;;;13.05;4.40;;;15.90;60.60;;;;;;10415285;28;20113;-55
2022/12/11 08:56:09;;;;;;;15.20;5.43;;;15.90;62.00;;;;;;10437422;28;20017;-54
2022/12/11 09:01:14;;;;;;;10.50;4.82;;;16.10;63.00;;;;;;10421598;28;20025;-55
2022/12/11 09:06:19;;;;;;;11.05;4.65;;;16.10;62.10;;;;;;10431157;28;20052;-53
2022/12/11 09:11:27;;;;;;;14.43;4.50;;;16.00;62.10;;;;;;10452377;28;20044;-54
2022/12/11 09:16:28;;;;;;;14.97;4.60;;;15.90;62.40;;;;;;10430547;28;20045;-55
2022/12/11 09:21:29;;;;;;;14.80;5.38;;;15.90;62.20;;;;;;10449191;28;20013;-55
2022/12/11 09:26:30;;;;;;;9.20;5.15;;;15.80;62.40;;;;;;10449251;28;20484;-55
2022/12/11 09:31:35;;;;;;;14.02;4.40;;;15.80;62.20;;;;;;10448662;28;20132;-54
2022/12/11 09:36:38;;;;;;;14.90;5.70;;;16.00;61.90;;;;;;10447109;28;20119;-54
2022/12/11 09:42:12;;;;;;;14.55;4.85;;;16.00;61.60;;;;;;10446790;28;20025;-55
2022/12/11 09:47:33;;;;;;;9.07;4.57;;;16.00;61.70;;;;;;10445473;28;20049;-54
2022/12/11 09:53:16;;;;;;;6.97;4.25;;;15.90;61.70;;;;;;10444196;28;20029;-54
2022/12/11 09:58:48;;;;;;;7.03;4.10;;;15.90;61.90;;;;;;10414979;28;20023;-56
2022/12/11 10:04:22;;;;;;;8.02;3.58;;;15.90;61.60;;;;;;10447696;28;20029;-54
2022/12/11 10:09:47;;;;;;;11.52;3.72;;;15.90;61.60;;;;;;10421825;28;20112;-55
2022/12/11 10:15:27;;;;;;;8.02;3.45;;;15.80;61.70;;;;;;10445449;28;20040;-53
2022/12/11 10:20:37;;;;;;;6.07;3.60;;;15.80;61.90;;;;;;10447541;28;20059;-54
2022/12/11 10:25:43;;;;;;;6.80;3.50;;;15.80;61.70;;;;;;10446722;28;20037;-55
2022/12/11 10:30:55;;;;;;;7.43;4.15;;;15.80;61.60;;;;;;10435803;28;20067;-54
2022/12/11 10:35:57;;;;;;;5.70;3.38;;;15.90;61.40;;;;;;10403691;28;20037;-55
2022/12/11 10:41:04;;;;;;;7.93;3.58;;;16.00;61.20;;;;;;10440121;28;20059;-54
2022/12/11 10:46:22;;;;;;;5.68;3.88;;;16.00;61.10;;;;;;10451213;28;20500;-53
2022/12/11 10:51:43;;;;;;;7.10;3.75;;;15.90;61.20;;;;;;10446276;28;20125;-54
2022/12/11 10:56:47;;;;;;;5.80;3.22;;;15.90;61.10;;;;;;10438435;28;20072;-55
2022/12/11 11:01:48;;;;;;;6.28;3.03;;;15.90;61.20;;;;;;10445783;28;21017;-55
2022/12/11 11:07:22;;;;;;;4.68;3.10;;;16.00;61.10;;;;;;10444594;28;20025;-53
2022/12/11 11:12:27;;;;;;;4.70;3.67;;;16.00;60.70;;;;;;10423618;28;20021;-54
2022/12/11 11:17:30;;;;;;;4.30;2.75;;;16.10;60.50;;;;;;10444673;28;20047;-55
2022/12/11 11:22:43;;;;;;;4.38;2.58;;;16.00;60.50;;;;;;10445025;28;20649;-55
2022/12/11 11:28:16;;;;;;;6.30;2.85;;;16.10;60.40;;;;;;10445063;28;20018;-54
2022/12/11 11:33:20;;;;;;;4.20;3.40;;;16.10;60.40;;;;;;10434259;28;20541;-54
2022/12/11 11:38:26;;;;;;;5.72;2.40;;;16.00;60.40;;;;;;10436485;28;20021;-55
2022/12/11 11:43:45;;;;;;;5.38;2.65;;;16.00;60.30;;;;;;10437149;28;20050;-56
2022/12/11 11:49:09;;;;;;;5.30;3.03;;;16.00;60.30;;;;;;10426577;28;20508;-56
2022/12/11 11:54:35;;;;;;;3.85;2.90;;;16.00;60.30;;;;;;10431455;28;20037;-55
2022/12/11 12:00:08;;;;;;;4.00;2.60;;;16.00;60.30;;;;;;10442966;28;20029;-55
2022/12/11 12:05:13;;;;;;;5.18;2.90;;;15.90;60.30;;;;;;10424710;28;20051;-54
2022/12/11 12:10:48;;;;;;;3.17;2.20;;;16.00;60.00;;;;;;10432212;28;20648;-54
2022/12/11 12:15:58;;;;;;;4.93;2.53;;;16.10;59.90;;;;;;10441712;28;20044;-55
2022/12/11 12:21:29;;;;;;;3.70;2.20;;;16.10;59.90;;;;;;10442173;28;20040;-54
2022/12/11 12:26:38;;;;;;;4.00;2.42;;;16.10;59.90;;;;;;10441923;28;20025;-55
2022/12/11 12:32:12;;;;;;;3.93;1.90;;;16.00;59.90;;;;;;10435671;28;20029;-57
2022/12/11 12:37:34;;;;;;;8.02;3.25;;;15.90;60.60;;;;;;10421719;28;20044;-54
2022/12/11 12:43:02;;;;;;;6.57;2.58;;;15.90;60.40;;;;;;10415587;28;20029;-52
2022/12/11 12:48:03;;;;;;;21.55;2.75;;;16.20;60.20;;;;;;10445359;28;20045;-52
2022/12/11 12:53:06;;;;;;;15.07;4.25;;;16.40;60.70;;;;;;10427307;28;20048;-55
2022/12/11 12:58:39;;;;;;;11.23;3.25;;;16.70;61.50;;;;;;10433884;28;20064;-54
2022/12/11 13:04:01;;;;;;;8.10;2.70;;;16.80;61.50;;;;;;10438501;28;20040;-55
2022/12/11 13:09:16;;;;;;;13.05;3.00;;;16.90;60.80;;;;;;10441538;28;20060;-54
2022/12/11 13:14:16;;;;;;;10.70;2.95;;;16.80;61.00;;;;;;10451705;28;20055;-54
2022/12/11 13:19:24;;;;;;;19.48;4.55;;;16.80;61.00;;;;;;10452387;28;20460;-55
2022/12/11 13:24:28;;;;;;;9.18;3.13;;;16.90;60.60;;;;;;10452284;28;20047;-54
2022/12/11 13:29:37;;;;;;;13.88;5.18;;;16.90;60.60;;;;;;10421928;28;20021;-53
2022/12/11 13:34:49;;;;;;;14.02;3.05;;;16.80;60.10;;;;;;10433899;28;20492;-55
2022/12/11 13:39:51;;;;;;;12.20;3.88;;;16.70;60.60;;;;;;10441685;28;20647;-53
2022/12/11 13:44:52;;;;;;;12.30;3.70;;;16.80;60.70;;;;;;10441641;28;20111;-55
2022/12/11 13:49:59;;;;;;;17.00;2.88;;;16.70;60.20;;;;;;10438605;28;20017;-55
2022/12/11 13:55:00;;;;;;;11.38;3.33;;;16.70;60.40;;;;;;10442755;28;20449;-54
2022/12/11 14:00:00;;;;;;;10.00;3.33;;;16.70;60.50;;;;;;10446060;28;20104;-52
2022/12/11 14:05:08;;;;;;;8.00;3.30;;;16.60;60.60;;;;;;10433686;28;20148;-53
2022/12/11 14:10:36;;;;;;;7.50;3.25;;;16.60;60.60;;;;;;10436084;28;20384;-55
2022/12/11 14:15:38;;;;;;;9.82;3.33;;;16.50;60.80;;;;;;10423437;28;20143;-54
2022/12/11 14:20:38;;;;;;;21.92;3.72;;;16.50;60.60;;;;;;10427023;28;20480;-54
2022/12/11 14:25:39;;;;;;;15.38;3.65;;;16.50;60.90;;;;;;10427468;28;20116;-53
2022/12/11 14:30:48;;;;;;;14.73;3.45;;;16.50;60.80;;;;;;10450511;28;20105;-54
2022/12/11 14:35:51;;;;;;;9.00;3.22;;;16.60;60.50;;;;;;10434138;28;20031;-53
2022/12/11 14:40:58;;;;;;;26.23;4.85;;;16.60;60.50;;;;;;10433704;28;20020;-52
2022/12/11 14:46:06;;;;;;;22.00;4.30;;;16.40;62.10;;;;;;10409950;28;20388;-55
2022/12/11 14:51:13;;;;;;;17.23;4.73;;;16.40;62.00;;;;;;10434974;28;20032;-53
2022/12/11 14:56:22;;;;;;;22.98;4.28;;;16.40;62.30;;;;;;10416002;28;20025;-57
2022/12/11 15:01:28;;;;;;;18.25;3.90;;;16.60;61.60;;;;;;10421174;28;20021;-53
2022/12/11 15:06:33;;;;;;;13.52;4.30;;;16.80;61.60;;;;;;10431612;28;20164;-53
2022/12/11 15:11:34;;;;;;;18.92;5.22;;;16.80;61.90;;;;;;10421145;28;20028;-55
2022/12/11 15:16:39;;;;;;;17.40;5.07;;;16.80;62.20;;;;;;10436539;28;20026;-55
2022/12/11 15:21:39;;;;;;;18.48;5.00;;;16.40;64.40;;;;;;10448725;28;20059;-55
2022/12/11 15:26:47;;;;;;;24.00;4.25;;;16.30;65.40;;;;;;10446081;28;20158;-55
2022/12/11 15:32:00;;;;;;;14.15;4.82;;;16.20;65.90;;;;;;10411128;28;20087;-53
2022/12/11 15:37:01;;;;;;;16.02;3.97;;;16.20;64.80;;;;;;10426291;28;20056;-52
2022/12/11 15:42:06;;;;;;;20.08;4.82;;;16.20;65.10;;;;;;10420244;28;20088;-54
2022/12/11 15:47:29;;;;;;;18.27;4.25;;;16.20;65.10;;;;;;10418829;28;20358;-54
2022/12/11 15:52:29;;;;;;;28.98;5.43;;;16.20;64.90;;;;;;10428838;28;20056;-53
2022/12/11 15:57:30;;;;;;;21.92;5.32;;;16.30;65.80;;;;;;10427821;28;20121;-55
2022/12/11 16:02:31;;;;;;;17.75;4.88;;;16.20;67.40;;;;;;10436144;28;20025;-54
2022/12/11 16:07:32;;;;;;;16.70;3.92;;;16.20;65.80;;;;;;10440998;28;20049;-52
2022/12/11 16:12:33;;;;;;;20.95;4.32;;;16.30;65.20;;;;;;10436497;28;20090;-53
2022/12/11 16:17:34;;;;;;;16.90;5.07;;;16.30;65.30;;;;;;10437433;28;20105;-54
2022/12/11 16:22:35;;;;;;;19.95;4.68;;;16.40;65.30;;;;;;10425712;28;20033;-53
2022/12/11 16:27:36;;;;;;;17.80;3.90;;;16.40;65.10;;;;;;10431146;28;20063;-54
2022/12/11 16:32:36;;;;;;;22.30;4.28;;;16.40;65.40;;;;;;10426712;28;20124;-55
2022/12/11 16:37:37;;;;;;;33.85;17.05;;;16.50;65.30;;;;;;10415322;28;20100;-55
2022/12/11 16:42:37;;;;;;;36.25;15.45;;;16.30;64.30;;;;;;10452674;28;20560;-55
2022/12/11 16:47:38;;;;;;;31.27;12.57;;;16.30;63.20;;;;;;10430211;28;20084;-57
2022/12/11 16:52:39;;;;;;;30.98;12.30;;;16.40;62.00;;;;;;10452021;28;20147;-55
2022/12/11 16:57:40;;;;;;;21.45;11.30;;;16.50;60.70;;;;;;10439210;28;20147;-54
2022/12/11 17:02:41;;;;;;;16.05;8.93;;;16.60;60.50;;;;;;10452890;28;20021;-55
2022/12/11 17:07:42;;;;;;;24.45;10.20;;;16.80;62.40;;;;;;10452764;28;20025;-56
2022/12/11 17:12:43;;;;;;;18.17;9.68;;;17.00;63.20;;;;;;10447009;28;20112;-53
2022/12/11 17:17:43;;;;;;;22.40;8.88;;;17.20;62.60;;;;;;10450086;28;20025;-57
2022/12/11 17:22:44;;;;;;;16.70;7.82;;;17.20;62.70;;;;;;10452519;28;20039;-54
2022/12/11 17:27:45;;;;;;;17.90;8.00;;;17.10;62.30;;;;;;10451634;28;20091;-55
2022/12/11 17:32:47;;;;;;;17.52;6.88;;;17.10;62.20;;;;;;10433733;28;20037;-56
2022/12/11 17:37:48;;;;;;;20.67;9.05;;;17.10;62.60;;;;;;10409416;28;20014;-53
2022/12/11 17:42:48;;;;;;;15.15;6.50;;;17.10;62.60;;;;;;10420310;28;20461;-55
2022/12/11 17:47:49;;;;;;;16.20;7.95;;;17.00;62.30;;;;;;10437630;28;20759;-54
2022/12/11 17:52:50;;;;;;;17.67;6.50;;;17.00;62.60;;;;;;10439555;28;20029;-55
2022/12/11 17:57:51;;;;;;;14.98;5.68;;;17.00;62.60;;;;;;10425945;28;20039;-54
2022/12/11 18:02:52;;;;;;;19.80;7.55;;;16.90;63.10;;;;;;10440335;28;20048;-53
2022/12/11 18:07:52;;;;;;;18.17;6.68;;;16.80;62.90;;;;;;10431847;28;20634;-53
2022/12/11 18:12:53;;;;;;;18.25;6.72;;;16.80;62.80;;;;;;10423807;28;20152;-53
2022/12/11 18:17:56;;;;;;;11.90;7.00;;;16.60;62.90;;;;;;10444456;28;20068;-51
2022/12/11 18:22:58;;;;;;;13.15;6.60;;;16.50;63.20;;;;;;10426659;28;20033;-52
2022/12/11 18:27:59;;;;;;;22.23;12.32;;;16.40;63.40;;;;;;10435667;28;20048;-52
2022/12/11 18:32:59;;;;;;;18.30;12.15;;;16.30;63.90;;;;;;10445090;28;20119;-54
2022/12/11 18:38:00;;;;;;;13.52;11.45;;;16.20;63.80;;;;;;10442843;28;20066;-54
2022/12/11 18:43:00;;;;;;;16.63;13.35;;;16.20;64.00;;;;;;10443864;28;20023;-54
2022/12/11 18:48:01;;;;;;;14.20;12.73;;;16.10;64.20;;;;;;10431531;28;20147;-54
2022/12/11 18:53:02;;;;;;;14.98;13.48;;;16.00;64.90;;;;;;10433464;28;20476;-54
2022/12/11 18:58:03;;;;;;;18.17;15.00;;;15.90;64.70;;;;;;10428702;28;20037;-54
2022/12/11 19:03:04;;;;;;;16.08;14.43;;;15.80;64.60;;;;;;10444221;28;20108;-55
2022/12/11 19:08:05;;;;;;;15.57;14.07;;;15.70;64.80;;;;;;10446196;28;20079;-54
2022/12/11 19:13:05;;;;;;;16.65;14.80;;;15.70;65.00;;;;;;10437558;28;20029;-54
2022/12/11 19:18:07;;;;;;;15.15;13.57;;;15.60;65.10;;;;;;10429164;28;20555;-56
2022/12/11 19:23:07;;;;;;;18.20;13.23;;;15.60;65.30;;;;;;10435518;28;20103;-55
2022/12/11 19:28:08;;;;;;;15.07;13.60;;;15.60;64.80;;;;;;10425896;28;20039;-53
2022/12/11 19:33:10;;;;;;;14.95;13.32;;;15.50;64.70;;;;;;10427493;28;20030;-52
2022/12/11 19:38:11;;;;;;;13.57;12.18;;;15.60;64.70;;;;;;10423180;28;20020;-54
2022/12/11 19:43:12;;;;;;;13.10;11.88;;;15.60;64.40;;;;;;10426352;28;20028;-54
2022/12/11 19:48:13;;;;;;;13.80;12.27;;;15.60;64.20;;;;;;10424109;28;21477;-53
2022/12/11 19:53:14;;;;;;;12.45;11.25;;;15.70;64.00;;;;;;10425016;28;20128;-54
2022/12/11 19:58:14;;;;;;;12.13;10.93;;;15.80;63.90;;;;;;10421178;28;20013;-55
2022/12/11 20:03:15;;;;;;;12.55;10.82;;;15.80;63.70;;;;;;10425925;28;20116;-54
2022/12/11 20:08:16;;;;;;;11.25;10.07;;;15.90;63.60;;;;;;10425860;28;20147;-55
2022/12/11 20:13:16;;;;;;;15.35;10.15;;;15.90;63.70;;;;;;10436053;28;20025;-54
2022/12/11 20:18:17;;;;;;;10.82;9.73;;;16.00;63.40;;;;;;10445377;28;20040;-54
2022/12/11 20:23:18;;;;;;;14.70;10.40;;;15.90;63.30;;;;;;10427959;28;20100;-52
2022/12/11 20:28:18;;;;;;;10.50;9.40;;;15.90;63.30;;;;;;10423922;28;20099;-54
2022/12/11 20:33:19;;;;;;;9.07;8.27;;;15.90;63.20;;;;;;10462281;28;20033;-54
2022/12/11 20:38:20;;;;;;;10.57;9.02;;;15.90;63.00;;;;;;10437256;28;20345;-55
2022/12/11 20:43:21;;;;;;;10.18;9.15;;;16.10;62.50;;;;;;10440489;28;20044;-51
2022/12/11 20:48:22;;;;;;;9.70;8.43;;;16.20;62.10;;;;;;10437140;28;20128;-51
2022/12/11 20:53:22;;;;;;;9.98;8.63;;;16.20;61.70;;;;;;10438291;28;20095;-55
2022/12/11 20:58:23;;;;;;;8.48;7.68;;;16.20;61.60;;;;;;10438219;28;20104;-55
2022/12/11 21:03:24;;;;;;;9.48;7.80;;;16.20;61.90;;;;;;10441067;28;20465;-52
2022/12/11 21:08:24;;;;;;;7.35;6.45;;;16.10;61.80;;;;;;10406783;28;20479;-56
2022/12/11 21:13:25;;;;;;;8.20;6.82;;;16.10;61.70;;;;;;10422771;28;20051;-52
2022/12/11 21:18:26;;;;;;;9.95;7.50;;;16.10;61.60;;;;;;10443950;28;20531;-55
2022/12/11 21:23:26;;;;;;;7.68;6.30;;;16.20;61.50;;;;;;10408865;28;20108;-54
2022/12/11 21:28:27;;;;;;;7.15;6.45;;;16.20;61.40;;;;;;10406028;28;20029;-53
2022/12/11 21:33:28;;;;;;;8.90;7.40;;;16.10;61.40;;;;;;10452883;28;20037;-53
2022/12/11 21:38:29;;;;;;;7.03;6.32;;;16.10;61.40;;;;;;10433125;28;20094;-54
2022/12/11 21:43:30;;;;;;;9.95;6.55;;;16.20;61.20;;;;;;10406402;28;20079;-53
2022/12/11 21:48:30;;;;;;;6.40;5.57;;;16.10;61.40;;;;;;10433300;28;20494;-54
2022/12/11 21:53:31;;;;;;;7.75;6.03;;;16.10;61.30;;;;;;10448002;28;20112;-54
2022/12/11 21:58:32;;;;;;;6.25;5.65;;;16.20;61.20;;;;;;10446062;28;20025;-53
2022/12/11 22:03:33;;;;;;;7.25;5.38;;;16.10;61.20;;;;;;10446558;28;20108;-53
2022/12/11 22:08:33;;;;;;;5.22;4.72;;;16.10;61.10;;;;;;10446893;28;20128;-54
2022/12/11 22:13:35;;;;;;;6.05;4.50;;;16.20;60.90;;;;;;10440886;28;20044;-54
2022/12/11 22:18:35;;;;;;;6.15;4.85;;;16.20;60.80;;;;;;10444271;28;20492;-53
2022/12/11 22:23:38;;;;;;;6.03;4.65;;;16.20;60.70;;;;;;10446064;28;20028;-55
2022/12/11 22:28:38;;;;;;;6.10;4.47;;;16.30;60.60;;;;;;10445898;28;20555;-54
2022/12/11 22:33:39;;;;;;;4.85;4.32;;;16.30;60.50;;;;;;10448972;28;20037;-54
2022/12/11 22:38:40;;;;;;;5.20;4.30;;;16.20;60.60;;;;;;10444403;28;20025;-52
2022/12/11 22:43:41;;;;;;;5.90;4.05;;;16.20;60.50;;;;;;10443806;28;20029;-55
2022/12/11 22:48:41;;;;;;;5.97;4.25;;;16.20;60.40;;;;;;10444799;28;20246;-54
2022/12/11 22:53:42;;;;;;;5.07;3.33;;;16.20;60.40;;;;;;10439623;28;20045;-54
2022/12/11 22:58:43;;;;;;;5.65;4.40;;;16.20;60.40;;;;;;10443251;28;20024;-51
2022/12/11 23:03:44;;;;;;;4.97;3.50;;;16.20;60.60;;;;;;10445140;28;20021;-55
2022/12/11 23:08:45;;;;;;;4.45;3.78;;;16.20;60.50;;;;;;10418498;28;20025;-52
2022/12/11 23:13:46;;;;;;;5.45;4.18;;;16.20;60.40;;;;;;10429829;28;20480;-54
2022/12/11 23:18:46;;;;;;;4.50;3.47;;;16.20;60.30;;;;;;10443661;28;20045;-54
2022/12/11 23:23:47;;;;;;;4.10;3.45;;;16.20;60.30;;;;;;10441790;28;20032;-55
2022/12/11 23:28:49;;;;;;;4.70;3.40;;;16.20;60.20;;;;;;10425541;28;20100;-54
2022/12/11 23:33:50;;;;;;;3.88;2.90;;;16.20;60.20;;;;;;10411471;28;20037;-53
2022/12/11 23:38:52;;;;;;;5.78;3.83;;;16.30;60.00;;;;;;10438706;28;20017;-56
2022/12/11 23:43:53;;;;;;;4.25;3.33;;;16.30;59.90;;;;;;10424394;28;20527;-53
2022/12/11 23:48:55;;;;;;;4.65;3.20;;;16.30;59.80;;;;;;10407446;28;20036;-55
2022/12/11 23:53:56;;;;;;;4.20;3.00;;;16.30;59.80;;;;;;10401568;28;20357;-54
2022/12/11 23:58:57;;;;;;;4.05;3.33;;;16.30;59.80;;;;;;10419693;28;20400;-54
